Trinidad, Colorado
Current Conditions -  °F | °C
As of 10:54 PM on Wednesday 28 Jan 2015 (Local Time) from KTAD Reporting Station
Clear Clear  
Wind Chill: 41°   Ceiling: Unl
Heat Index: 41°   Visibility: 10mi
Dew Point: 28°   Wind: 0mph
Humidity: 60%   Direction: NA
Pressure: 30.33"   Gusts: NA
Location:  37.17°N, 104.51°W
Report Text: KTAD 290554Z AUTO 00000KT 10SM CLR 05/M02 A3033 RMK AO2 SLP237 T00501022 10122 20028 51039
Loading
Personal Weather Stations






























Interactive Weather Map New forecast layout! Learn more

10-Day Weather Forecast

Advertisements
Track Severe Weather on mobile